Time;durP1;ratioP1;P1;durP2;ratioP2;P2;SDS_P1;SDS_P2;PMS_P1;PMS_P2;Temp;Humidity;BMP_temperature;BMP_pressure;BME280_temperature;BME280_humidity;BME280_pressure;Samples;Min_cycle;Max_cycle;Signal;HPM_P1;HPM_P2
2022/08/21 00:02:13;;;;;;;5.10;2.20;;;18.90;64.60;;;;;;4979457;28;20050;-80
2022/08/21 00:04:40;;;;;;;5.75;2.65;;;18.90;64.60;;;;;;4979642;28;20349;-80
2022/08/21 00:07:07;;;;;;;5.25;2.30;;;18.90;64.60;;;;;;5013445;28;20136;-80
2022/08/21 00:09:34;;;;;;;5.65;2.65;;;18.80;64.60;;;;;;5013454;28;20050;-80
2022/08/21 00:12:01;;;;;;;5.38;2.83;;;18.80;64.80;;;;;;4995660;28;20050;-80
2022/08/21 00:14:28;;;;;;;5.43;2.57;;;18.70;64.80;;;;;;4979268;28;20042;-80
2022/08/21 00:16:56;;;;;;;5.05;2.25;;;18.70;65.00;;;;;;4995186;28;20278;-81
2022/08/21 00:19:24;;;;;;;5.20;2.20;;;18.70;65.10;;;;;;4995633;28;20141;-80
2022/08/21 00:21:51;;;;;;;4.63;2.30;;;18.60;65.20;;;;;;5013609;28;20105;-81
2022/08/21 00:24:18;;;;;;;5.25;2.58;;;18.60;65.20;;;;;;4995821;28;20140;-80
2022/08/21 00:26:46;;;;;;;5.50;2.23;;;18.50;65.30;;;;;;4995032;28;20050;-80
2022/08/21 00:29:13;;;;;;;6.53;2.88;;;18.50;65.40;;;;;;4994960;28;20254;-80
2022/08/21 00:31:41;;;;;;;7.28;2.90;;;18.50;65.50;;;;;;4995116;28;20619;-80
2022/08/21 00:34:10;;;;;;;5.57;2.85;;;18.50;65.70;;;;;;4995197;28;20054;-80
2022/08/21 00:36:37;;;;;;;5.72;3.50;;;18.40;65.90;;;;;;4978667;28;20141;-80
2022/08/21 00:39:05;;;;;;;6.17;3.07;;;18.40;65.70;;;;;;5012939;28;20053;-80
2022/08/21 00:41:32;;;;;;;7.10;3.63;;;18.30;65.60;;;;;;4994524;28;20258;-80
2022/08/21 00:43:59;;;;;;;8.35;3.90;;;18.30;65.60;;;;;;4995428;28;20054;-80
2022/08/21 00:46:26;;;;;;;4.97;3.42;;;18.30;65.60;;;;;;4987702;28;20073;-80
2022/08/21 00:48:53;;;;;;;7.95;3.90;;;18.20;65.50;;;;;;4986221;28;20931;-81
2022/08/21 00:51:26;;;;;;;7.83;3.90;;;18.20;65.60;;;;;;4994049;28;20046;-80
2022/08/21 00:53:58;;;;;;;7.75;3.58;;;18.20;65.50;;;;;;4994770;28;20258;-80
2022/08/21 00:56:26;;;;;;;6.70;3.72;;;18.20;65.50;;;;;;5012999;28;20131;-80
2022/08/21 00:58:54;;;;;;;6.65;3.65;;;18.10;65.60;;;;;;5012508;28;20050;-80
2022/08/21 01:01:22;;;;;;;7.97;4.10;;;18.10;65.90;;;;;;4994958;28;20076;-81
2022/08/21 01:03:49;;;;;;;6.17;3.60;;;18.10;66.20;;;;;;4994878;28;20537;-80
2022/08/21 01:06:17;;;;;;;6.78;3.65;;;18.10;66.50;;;;;;5016234;28;20286;-81
2022/08/21 01:08:46;;;;;;;7.30;3.65;;;18.00;66.90;;;;;;4994622;28;20050;-81
2022/08/21 01:11:14;;;;;;;7.53;3.33;;;18.00;67.10;;;;;;4994755;28;20109;-80
2022/08/21 01:13:45;;;;;;;7.57;3.92;;;18.00;67.30;;;;;;4994816;28;20050;-80
2022/08/21 01:16:14;;;;;;;6.23;3.50;;;17.90;67.50;;;;;;4994810;28;20519;-81
2022/08/21 01:18:41;;;;;;;6.28;4.18;;;17.90;67.70;;;;;;5011920;28;20250;-80
2022/08/21 01:21:12;;;;;;;7.78;4.40;;;17.80;67.90;;;;;;4994450;28;20054;-81
2022/08/21 01:23:42;;;;;;;6.43;4.10;;;17.80;68.10;;;;;;4994877;28;20053;-81
2022/08/21 01:26:10;;;;;;;6.25;3.60;;;17.70;68.30;;;;;;5012625;28;20054;-80
2022/08/21 01:28:41;;;;;;;7.43;3.80;;;17.60;68.30;;;;;;4994133;28;20528;-81
2022/08/21 01:31:11;;;;;;;5.97;4.00;;;17.60;68.60;;;;;;4977541;28;21208;-81
2022/08/21 01:33:38;;;;;;;8.55;4.25;;;17.50;68.80;;;;;;4994321;28;20061;-81
2022/08/21 01:36:06;;;;;;;6.32;3.30;;;17.50;68.80;;;;;;5011933;28;20050;-81
2022/08/21 01:38:34;;;;;;;6.05;3.72;;;17.50;68.50;;;;;;4994198;28;20807;-81
2022/08/21 01:41:01;;;;;;;4.10;2.10;;;17.50;68.60;;;;;;5012157;28;20133;-81
2022/08/21 01:43:28;;;;;;;4.32;1.90;;;17.40;68.70;;;;;;4994185;28;20254;-81
2022/08/21 01:45:55;;;;;;;4.03;1.92;;;17.40;68.80;;;;;;4994120;28;20054;-81
2022/08/21 01:48:22;;;;;;;5.07;2.70;;;17.40;68.70;;;;;;4994450;28;20054;-81
2022/08/21 01:50:49;;;;;;;5.38;3.00;;;17.20;68.60;;;;;;4994402;28;20057;-81
2022/08/21 01:53:16;;;;;;;5.53;3.27;;;17.20;68.70;;;;;;4993380;28;20042;-81
2022/08/21 01:55:44;;;;;;;6.28;3.42;;;17.10;68.90;;;;;;4994013;28;20292;-81
2022/08/21 01:58:11;;;;;;;6.20;3.30;;;17.00;69.10;;;;;;4977974;28;20042;-81
2022/08/21 02:00:38;;;;;;;6.72;4.10;;;17.00;69.10;;;;;;4993840;28;20050;-81
2022/08/21 02:03:05;;;;;;;8.35;3.63;;;17.00;69.20;;;;;;4994194;28;20054;-82
2022/08/21 02:05:32;;;;;;;6.60;3.77;;;17.00;69.10;;;;;;4994247;28;20053;-81
2022/08/21 02:07:59;;;;;;;7.47;3.88;;;17.00;69.10;;;;;;4977672;28;20732;-81
2022/08/21 02:10:30;;;;;;;7.72;3.83;;;17.00;69.00;;;;;;4993870;28;20054;-81
2022/08/21 02:13:00;;;;;;;4.95;2.60;;;17.00;69.00;;;;;;4977925;28;20109;-81
2022/08/21 02:15:27;;;;;;;7.25;3.50;;;17.00;69.10;;;;;;5010331;28;20061;-81
2022/08/21 02:17:56;;;;;;;7.17;3.63;;;17.00;69.30;;;;;;4993873;28;20042;-81
2022/08/21 02:20:27;;;;;;;4.95;3.45;;;16.90;69.50;;;;;;5011196;28;20262;-81
2022/08/21 02:22:55;;;;;;;5.10;3.45;;;16.90;69.70;;;;;;4993466;28;20576;-81
2022/08/21 02:25:23;;;;;;;6.25;3.70;;;16.90;69.60;;;;;;4993788;28;20860;-81
2022/08/21 02:27:50;;;;;;;5.90;3.58;;;16.80;69.80;;;;;;4994139;28;20137;-81
2022/08/21 02:30:21;;;;;;;6.00;3.93;;;16.80;69.80;;;;;;4993616;28;20050;-81
2022/08/21 02:32:48;;;;;;;6.68;3.85;;;16.80;69.70;;;;;;4993452;28;20259;-81
2022/08/21 02:35:15;;;;;;;5.07;2.70;;;16.80;69.50;;;;;;4993959;28;20054;-81
2022/08/21 02:37:47;;;;;;;4.00;2.70;;;16.80;69.50;;;;;;4993745;28;20050;-81
2022/08/21 02:40:15;;;;;;;5.05;2.75;;;16.80;69.60;;;;;;4993676;28;20133;-81
2022/08/21 02:42:43;;;;;;;8.47;3.47;;;16.80;69.60;;;;;;4993701;28;20046;-81
2022/08/21 02:45:10;;;;;;;4.63;2.50;;;16.80;69.50;;;;;;5010991;28;20330;-81
2022/08/21 02:47:39;;;;;;;5.57;3.08;;;16.80;69.40;;;;;;4993717;28;20125;-81
2022/08/21 02:50:08;;;;;;;4.43;2.88;;;16.80;69.40;;;;;;5010895;28;20500;-81
2022/08/21 02:52:36;;;;;;;4.35;2.67;;;16.80;69.30;;;;;;5011087;28;20050;-81
2022/08/21 02:55:04;;;;;;;7.03;3.30;;;16.70;69.20;;;;;;4993280;28;20145;-81
2022/08/21 02:57:32;;;;;;;6.55;3.28;;;16.70;69.10;;;;;;4993303;28;20285;-81
2022/08/21 02:59:59;;;;;;;6.15;3.40;;;16.70;69.10;;;;;;5011387;28;20059;-81
2022/08/21 03:02:26;;;;;;;6.68;3.58;;;16.70;69.00;;;;;;4977176;28;20055;-81
2022/08/21 03:04:54;;;;;;;5.60;3.03;;;16.70;69.00;;;;;;4995505;28;20145;-80
2022/08/21 03:07:21;;;;;;;4.57;2.67;;;16.60;69.00;;;;;;4996529;28;20046;-81
2022/08/21 03:09:48;;;;;;;3.55;2.47;;;16.60;69.00;;;;;;4996760;28;20754;-81
2022/08/21 03:12:15;;;;;;;3.72;2.28;;;16.60;69.20;;;;;;5014485;28;20113;-81
2022/08/21 03:14:42;;;;;;;4.63;2.97;;;16.60;69.30;;;;;;4996656;28;20162;-81
2022/08/21 03:17:09;;;;;;;5.10;2.60;;;16.60;69.50;;;;;;4996480;28;20137;-81
2022/08/21 03:19:36;;;;;;;3.93;2.77;;;16.60;69.60;;;;;;5013935;28;20054;-81
2022/08/21 03:22:05;;;;;;;3.85;2.13;;;16.50;69.80;;;;;;4996605;28;20254;-81
2022/08/21 03:24:32;;;;;;;5.13;2.80;;;16.50;69.90;;;;;;4996562;28;20061;-81
2022/08/21 03:26:59;;;;;;;5.82;3.05;;;16.50;69.90;;;;;;4979923;28;20535;-81
2022/08/21 03:29:26;;;;;;;5.80;3.50;;;16.50;69.90;;;;;;4996436;28;20085;-81
2022/08/21 03:31:54;;;;;;;5.07;3.27;;;16.50;69.90;;;;;;5013697;28;20050;-81
2022/08/21 03:34:21;;;;;;;9.13;4.20;;;16.40;69.90;;;;;;4996287;28;20278;-81
2022/08/21 03:36:49;;;;;;;6.95;4.18;;;16.40;69.90;;;;;;4996233;28;20058;-81
2022/08/21 03:39:18;;;;;;;6.43;4.10;;;16.40;70.00;;;;;;4996190;28;20563;-81
2022/08/21 03:41:45;;;;;;;5.93;3.97;;;16.40;70.20;;;;;;4996288;28;20050;-81
2022/08/21 03:44:12;;;;;;;7.10;4.13;;;16.40;70.30;;;;;;4995711;28;20053;-81
2022/08/21 03:46:39;;;;;;;7.78;4.40;;;16.40;70.50;;;;;;5014076;28;20262;-81
2022/08/21 03:49:07;;;;;;;9.93;5.38;;;16.40;70.50;;;;;;4995602;28;20051;-81
2022/08/21 03:51:35;;;;;;;8.27;4.65;;;16.30;70.60;;;;;;4995783;28;20058;-81
2022/08/21 03:54:02;;;;;;;7.30;4.18;;;16.30;70.50;;;;;;5013673;28;20057;-81
2022/08/21 03:56:30;;;;;;;7.07;4.80;;;16.30;70.60;;;;;;5013335;28;20572;-81
2022/08/21 03:58:58;;;;;;;7.13;4.28;;;16.20;70.70;;;;;;4995364;28;21344;-81
2022/08/21 04:01:25;;;;;;;10.73;5.10;;;16.20;70.80;;;;;;4995736;28;20477;-80
2022/08/21 04:03:52;;;;;;;7.65;4.38;;;16.20;70.70;;;;;;4995554;28;20054;-81
2022/08/21 04:06:18;;;;;;;9.52;5.53;;;16.20;70.80;;;;;;4995846;28;20058;-81
2022/08/21 04:08:45;;;;;;;8.77;5.03;;;16.20;70.90;;;;;;4995790;28;20054;-81
2022/08/21 04:11:12;;;;;;;8.73;5.30;;;16.20;71.00;;;;;;4995432;28;20251;-81
2022/08/21 04:13:41;;;;;;;12.63;5.78;;;16.20;71.20;;;;;;4995869;28;20142;-81
2022/08/21 04:16:08;;;;;;;8.65;5.30;;;16.20;71.40;;;;;;4994813;28;20054;-81
2022/08/21 04:18:35;;;;;;;8.90;5.20;;;16.10;71.70;;;;;;4979171;28;20050;-81
2022/08/21 04:21:03;;;;;;;10.67;5.57;;;16.10;71.80;;;;;;4997685;28;20064;-81
2022/08/21 04:23:31;;;;;;;11.15;6.05;;;16.10;71.90;;;;;;4995465;28;20274;-81
2022/08/21 04:25:58;;;;;;;11.25;6.03;;;16.00;72.20;;;;;;4995405;28;20149;-81
2022/08/21 04:28:27;;;;;;;10.65;5.63;;;16.00;72.30;;;;;;4995538;28;20054;-81
2022/08/21 04:30:56;;;;;;;9.57;5.78;;;16.00;72.40;;;;;;4995212;28;20058;-81
2022/08/21 04:33:23;;;;;;;10.07;5.83;;;16.00;72.50;;;;;;4995363;28;20551;-81
2022/08/21 04:35:51;;;;;;;10.23;6.30;;;15.90;72.70;;;;;;4995418;28;20275;-81
2022/08/21 04:38:18;;;;;;;11.07;6.38;;;16.00;72.80;;;;;;4995755;28;20408;-81
2022/08/21 04:40:45;;;;;;;8.65;6.28;;;15.80;72.90;;;;;;4978744;28;20054;-81
2022/08/21 04:43:12;;;;;;;8.25;5.78;;;15.90;73.00;;;;;;4994988;28;20174;-81
2022/08/21 04:45:43;;;;;;;10.60;6.20;;;15.90;73.00;;;;;;4994869;28;20058;-82
2022/08/21 04:48:13;;;;;;;12.55;6.25;;;15.80;73.20;;;;;;4995712;28;20257;-81
2022/08/21 04:50:44;;;;;;;11.70;6.50;;;15.80;73.30;;;;;;4994921;28;20050;-81
2022/08/21 04:53:15;;;;;;;10.40;6.22;;;15.80;73.50;;;;;;4995188;28;20467;-81
2022/08/21 04:55:44;;;;;;;10.75;6.22;;;15.80;73.60;;;;;;4994949;28;20061;-81
2022/08/21 04:58:14;;;;;;;8.83;5.87;;;15.80;73.80;;;;;;5012577;28;20042;-81
2022/08/21 05:00:41;;;;;;;10.98;6.53;;;15.70;74.00;;;;;;4994574;28;20863;-81
2022/08/21 05:03:11;;;;;;;11.25;6.60;;;15.70;74.10;;;;;;4994982;28;20050;-81
2022/08/21 05:05:39;;;;;;;11.35;6.60;;;15.60;74.30;;;;;;4978470;28;20115;-81
2022/08/21 05:08:08;;;;;;;10.98;6.40;;;15.60;74.30;;;;;;5012892;28;20432;-81
2022/08/21 05:10:35;;;;;;;11.30;6.10;;;15.60;74.50;;;;;;4994362;28;20062;-81
2022/08/21 05:13:03;;;;;;;10.75;6.30;;;15.60;74.60;;;;;;4994843;28;21060;-81
2022/08/21 05:15:30;;;;;;;11.63;6.22;;;15.60;74.70;;;;;;4994984;28;20419;-81
2022/08/21 05:17:57;;;;;;;10.90;6.43;;;15.60;74.80;;;;;;4995026;28;20531;-81
2022/08/21 05:20:25;;;;;;;9.40;5.93;;;15.60;74.90;;;;;;4994555;28;20047;-81
2022/08/21 05:22:52;;;;;;;12.13;6.43;;;15.60;75.10;;;;;;4994359;28;20057;-81
2022/08/21 05:25:19;;;;;;;12.13;6.63;;;15.60;75.20;;;;;;4995044;28;20330;-80
2022/08/21 05:27:46;;;;;;;12.20;6.55;;;15.60;75.30;;;;;;4993825;28;20055;-80
2022/08/21 05:30:13;;;;;;;9.93;6.03;;;15.60;75.50;;;;;;4994697;28;20061;-80
2022/08/21 05:32:40;;;;;;;11.43;6.00;;;15.60;75.70;;;;;;4994790;28;20072;-80
2022/08/21 05:35:09;;;;;;;10.57;6.30;;;15.60;75.70;;;;;;4994234;28;20084;-81
2022/08/21 05:37:37;;;;;;;10.48;6.07;;;15.60;75.90;;;;;;4994580;28;20290;-81
2022/08/21 05:40:05;;;;;;;9.93;5.75;;;15.60;76.10;;;;;;4994266;28;20058;-81
2022/08/21 05:42:32;;;;;;;11.45;5.95;;;15.60;76.20;;;;;;5012427;28;20057;-80
2022/08/21 05:44:59;;;;;;;11.23;5.90;;;15.60;76.20;;;;;;4994593;28;20073;-80
2022/08/21 05:47:26;;;;;;;10.83;5.63;;;15.60;76.50;;;;;;4993878;28;20125;-77
2022/08/21 05:49:54;;;;;;;11.20;5.75;;;15.60;76.60;;;;;;4993232;28;20403;-80
2022/08/21 05:52:22;;;;;;;11.32;6.07;;;15.60;76.50;;;;;;5011681;28;20054;-81
2022/08/21 05:54:53;;;;;;;11.60;5.80;;;15.60;76.70;;;;;;4994213;28;20208;-81
2022/08/21 05:57:21;;;;;;;11.55;5.68;;;15.60;77.00;;;;;;4978012;28;20104;-81
2022/08/21 05:59:47;;;;;;;11.93;5.70;;;15.70;77.30;;;;;;4993018;28;20192;-81
2022/08/21 06:02:14;;;;;;;11.48;5.72;;;15.80;77.40;;;;;;4991449;28;20294;-74
2022/08/21 06:04:42;;;;;;;10.68;5.82;;;15.80;77.60;;;;;;5014832;28;20061;-76
2022/08/21 06:07:09;;;;;;;13.65;5.80;;;15.80;78.00;;;;;;4982867;28;20046;-79
2022/08/21 06:09:36;;;;;;;11.65;5.75;;;15.80;78.00;;;;;;4997299;28;20479;-74
2022/08/21 06:12:08;;;;;;;10.37;5.27;;;15.80;78.20;;;;;;4992760;28;20539;-75
2022/08/21 06:14:35;;;;;;;8.82;4.93;;;15.90;78.40;;;;;;4997706;28;20255;-75
2022/08/21 06:17:04;;;;;;;11.18;5.63;;;16.00;78.70;;;;;;4993776;28;20493;-77
2022/08/21 06:19:31;;;;;;;12.13;5.60;;;16.00;79.10;;;;;;4989094;28;20138;-74
2022/08/21 06:21:58;;;;;;;9.55;5.18;;;16.00;79.10;;;;;;5009833;28;20099;-74
2022/08/21 06:24:25;;;;;;;12.83;5.83;;;16.00;79.50;;;;;;4991220;28;20050;-75
2022/08/21 06:26:53;;;;;;;12.98;5.53;;;16.10;79.70;;;;;;4990953;28;20800;-75
2022/08/21 06:29:21;;;;;;;9.38;5.30;;;16.10;79.40;;;;;;5008355;28;20060;-76
2022/08/21 06:31:50;;;;;;;12.75;5.40;;;16.20;79.50;;;;;;4990788;28;20046;-75
2022/08/21 06:34:17;;;;;;;11.13;5.88;;;16.20;79.60;;;;;;4991677;28;20054;-76
2022/08/21 06:36:45;;;;;;;13.20;5.80;;;16.20;79.70;;;;;;5007110;28;20097;-75
2022/08/21 06:39:13;;;;;;;11.27;5.65;;;16.30;80.00;;;;;;4989450;28;20274;-75
2022/08/21 06:41:40;;;;;;;10.88;5.82;;;16.40;79.70;;;;;;5008438;28;20042;-75
2022/08/21 06:44:07;;;;;;;10.50;5.20;;;16.40;79.90;;;;;;4992511;28;20054;-76
2022/08/21 06:46:36;;;;;;;12.65;5.55;;;16.40;79.70;;;;;;4994228;28;20045;-77
2022/08/21 06:49:03;;;;;;;11.23;5.30;;;16.50;80.20;;;;;;5006834;28;20074;-74
2022/08/21 06:51:30;;;;;;;11.07;5.53;;;16.50;79.80;;;;;;4986351;28;20296;-74
2022/08/21 06:53:57;;;;;;;10.93;5.18;;;16.50;80.00;;;;;;4984637;28;20057;-75
2022/08/21 06:56:24;;;;;;;9.93;4.70;;;16.60;80.00;;;;;;5003019;28;20849;-75
2022/08/21 06:58:51;;;;;;;13.57;5.90;;;16.70;80.20;;;;;;4989590;28;20189;-75
2022/08/21 07:01:19;;;;;;;11.13;5.00;;;16.70;80.40;;;;;;4986710;28;20053;-73
2022/08/21 07:03:47;;;;;;;10.73;5.20;;;16.80;80.50;;;;;;5004446;28;20274;-74
2022/08/21 07:06:14;;;;;;;12.05;5.22;;;16.90;80.50;;;;;;4985154;28;20133;-74
2022/08/21 07:08:41;;;;;;;11.82;4.68;;;16.90;80.70;;;;;;5005126;28;20051;-74
2022/08/21 07:11:13;;;;;;;11.93;4.68;;;17.00;80.50;;;;;;5003656;28;20134;-76
2022/08/21 07:13:40;;;;;;;9.17;3.77;;;17.00;80.30;;;;;;4999257;28;20574;-74
2022/08/21 07:16:08;;;;;;;8.77;4.35;;;17.10;80.50;;;;;;5002416;28;20334;-74
2022/08/21 07:18:35;;;;;;;10.70;4.70;;;17.20;80.40;;;;;;4987454;28;20520;-74
2022/08/21 07:21:05;;;;;;;9.90;4.63;;;17.20;80.40;;;;;;4986376;28;20461;-74
2022/08/21 07:23:35;;;;;;;11.10;4.25;;;17.30;80.20;;;;;;4985896;28;20057;-74
2022/08/21 07:26:02;;;;;;;9.83;4.27;;;17.40;80.10;;;;;;5000808;28;20494;-74
2022/08/21 07:28:30;;;;;;;11.30;3.90;;;17.50;80.00;;;;;;4984047;28;20276;-74
2022/08/21 07:31:00;;;;;;;10.38;3.95;;;17.50;79.90;;;;;;4984841;28;20531;-74
2022/08/21 07:33:30;;;;;;;13.50;4.50;;;17.60;80.00;;;;;;4991983;28;20047;-74
2022/08/21 07:35:57;;;;;;;8.68;3.85;;;17.70;79.80;;;;;;4994695;28;20141;-74
2022/08/21 07:38:26;;;;;;;12.03;4.60;;;17.80;79.50;;;;;;4995716;28;20515;-74
2022/08/21 07:40:58;;;;;;;11.43;4.50;;;17.80;78.70;;;;;;5013596;28;20281;-74
2022/08/21 07:43:25;;;;;;;10.55;3.90;;;18.00;78.40;;;;;;4995037;28;20054;-75
2022/08/21 07:45:53;;;;;;;12.13;3.80;;;18.00;78.30;;;;;;5000004;28;20102;-75
2022/08/21 07:48:20;;;;;;;11.55;4.25;;;18.10;78.00;;;;;;4993953;28;20082;-78
2022/08/21 07:50:48;;;;;;;11.20;4.00;;;18.20;77.50;;;;;;5022980;28;20047;-75
2022/08/21 07:53:15;;;;;;;10.35;3.75;;;18.20;77.20;;;;;;5002273;28;20299;-75
2022/08/21 07:55:43;;;;;;;14.55;3.55;;;18.30;76.70;;;;;;4992039;28;20046;-74
2022/08/21 07:58:10;;;;;;;8.77;3.40;;;18.40;75.70;;;;;;4993527;28;20094;-74
2022/08/21 08:00:37;;;;;;;12.95;3.55;;;18.50;74.80;;;;;;5002370;28;20061;-75
2022/08/21 08:03:04;;;;;;;10.97;3.37;;;18.50;74.40;;;;;;4991868;28;20057;-75
2022/08/21 08:05:32;;;;;;;7.07;2.40;;;18.60;73.90;;;;;;5003660;28;20254;-74
2022/08/21 08:07:59;;;;;;;9.63;3.50;;;18.70;74.20;;;;;;5018209;28;20051;-75
2022/08/21 08:10:28;;;;;;;9.95;3.30;;;18.70;74.10;;;;;;4992042;28;20873;-75
2022/08/21 08:12:56;;;;;;;9.95;3.75;;;18.80;73.50;;;;;;4992781;28;20058;-75
2022/08/21 08:15:28;;;;;;;9.30;3.70;;;18.90;73.10;;;;;;4994322;28;20475;-74
2022/08/21 08:17:56;;;;;;;8.93;3.28;;;18.90;72.70;;;;;;4990828;28;20256;-74
2022/08/21 08:20:26;;;;;;;9.60;3.35;;;19.00;71.70;;;;;;4991018;28;20134;-75
2022/08/21 08:22:53;;;;;;;7.28;2.13;;;19.00;71.80;;;;;;4992673;28;20074;-75
2022/08/21 08:25:23;;;;;;;9.15;3.33;;;19.10;72.00;;;;;;5009838;28;20058;-74
2022/08/21 08:27:50;;;;;;;8.67;2.07;;;19.10;71.60;;;;;;4991570;28;20141;-76
2022/08/21 08:30:20;;;;;;;7.97;2.70;;;19.20;70.40;;;;;;4992870;28;20283;-76
2022/08/21 08:32:47;;;;;;;10.65;2.95;;;19.20;70.40;;;;;;4989748;28;20560;-75
2022/08/21 08:35:14;;;;;;;9.55;3.22;;;19.30;70.10;;;;;;4991450;28;20055;-76
2022/08/21 08:37:42;;;;;;;10.45;3.90;;;19.30;69.70;;;;;;4989457;28;20059;-77
2022/08/21 08:40:14;;;;;;;9.67;3.50;;;19.40;69.30;;;;;;4990330;28;21006;-76
2022/08/21 08:42:41;;;;;;;9.07;2.97;;;19.40;69.30;;;;;;4990200;28;20265;-76
2022/08/21 08:45:11;;;;;;;12.25;3.20;;;19.40;69.40;;;;;;5024127;28;20061;-75
2022/08/21 08:47:42;;;;;;;10.93;2.55;;;19.50;69.80;;;;;;5013764;28;20050;-76
2022/08/21 08:50:14;;;;;;;7.60;2.38;;;19.50;70.00;;;;;;4989704;28;20043;-76
2022/08/21 08:52:46;;;;;;;8.60;2.43;;;19.50;68.60;;;;;;5009481;28;20062;-75
2022/08/21 08:55:16;;;;;;;8.20;2.22;;;19.60;68.80;;;;;;5011516;28;20314;-75
2022/08/21 08:57:46;;;;;;;8.27;2.08;;;19.70;68.10;;;;;;5010499;28;20141;-74
2022/08/21 09:00:17;;;;;;;8.05;2.30;;;19.70;67.90;;;;;;5010511;28;20123;-76
2022/08/21 09:02:47;;;;;;;10.35;2.35;;;19.70;68.40;;;;;;5011076;28;20137;-75
2022/08/21 09:05:23;;;;;;;6.43;1.97;;;19.70;68.20;;;;;;4994617;28;20050;-75
2022/08/21 09:08:10;;;;;;;7.25;1.65;;;19.80;68.50;;;;;;5012156;28;20294;-75
2022/08/21 09:10:57;;;;;;;6.10;1.60;;;19.90;68.40;;;;;;5027318;28;20058;-75
2022/08/21 09:13:34;;;;;;;6.88;1.10;;;20.00;68.60;;;;;;4994371;28;20073;-76
2022/08/21 09:16:09;;;;;;;5.15;1.20;;;20.00;67.80;;;;;;5010490;28;20133;-75
2022/08/21 09:18:47;;;;;;;7.27;1.30;;;20.00;67.40;;;;;;4990601;28;20112;-75
2022/08/21 09:21:24;;;;;;;7.63;1.60;;;20.10;67.90;;;;;;4982203;28;20791;-76
2022/08/21 09:24:15;;;;;;;9.02;1.73;;;20.10;68.10;;;;;;4999558;28;20051;-76
2022/08/21 09:26:51;;;;;;;10.27;1.85;;;20.30;67.80;;;;;;5001061;28;20058;-75
2022/08/21 09:29:20;;;;;;;7.03;1.60;;;20.30;67.60;;;;;;4982856;28;20505;-75
2022/08/21 09:31:47;;;;;;;6.33;1.60;;;20.30;67.20;;;;;;4983522;28;20119;-76
2022/08/21 09:34:25;;;;;;;6.82;1.90;;;20.30;67.20;;;;;;4982476;28;20274;-76
2022/08/21 09:36:53;;;;;;;6.35;1.73;;;20.40;67.30;;;;;;4981769;28;21050;-76
2022/08/21 09:39:25;;;;;;;7.65;1.98;;;20.50;67.70;;;;;;5001966;28;20161;-76
2022/08/21 09:41:58;;;;;;;5.72;1.52;;;20.50;68.00;;;;;;4981869;28;20043;-76
2022/08/21 09:44:28;;;;;;;9.23;2.00;;;20.50;68.00;;;;;;4976148;28;20063;-76
2022/08/21 09:46:55;;;;;;;8.43;1.65;;;20.60;68.00;;;;;;4991753;28;20262;-76
2022/08/21 09:49:30;;;;;;;7.55;1.85;;;20.60;67.80;;;;;;4973720;28;20053;-76
2022/08/21 09:52:00;;;;;;;8.68;1.70;;;20.70;68.00;;;;;;4973450;28;20054;-76
2022/08/21 09:54:30;;;;;;;5.88;1.70;;;20.70;68.10;;;;;;4974150;28;20501;-76
2022/08/21 09:59:45;;;;;;;7.35;2.15;;;20.80;67.80;;;;;;4973433;28;20267;-76
2022/08/21 10:02:27;;;;;;;7.82;1.98;;;20.80;67.50;;;;;;4973506;28;20042;-76
2022/08/21 10:04:58;;;;;;;7.90;2.22;;;20.80;67.50;;;;;;4973487;28;20046;-76
2022/08/21 10:07:28;;;;;;;8.38;2.20;;;20.80;67.60;;;;;;4992061;28;20559;-75
2022/08/21 10:10:05;;;;;;;6.37;2.37;;;20.90;67.80;;;;;;4976379;28;20109;-76
2022/08/21 10:12:42;;;;;;;5.13;1.65;;;20.90;68.20;;;;;;5000061;28;20379;-76
2022/08/21 10:15:20;;;;;;;7.78;1.85;;;21.00;68.10;;;;;;4980894;28;20057;-76
2022/08/21 10:18:01;;;;;;;6.75;1.80;;;21.00;67.20;;;;;;4999321;28;20062;-76
2022/08/21 10:20:49;;;;;;;5.30;1.73;;;21.10;67.10;;;;;;4981564;28;20567;-76
2022/08/21 10:23:45;;;;;;;6.97;2.00;;;21.10;67.30;;;;;;4982192;28;20047;-78
2022/08/21 10:26:27;;;;;;;9.15;2.10;;;21.10;68.20;;;;;;5000644;28;20312;-76
2022/08/21 10:29:06;;;;;;;7.43;1.88;;;21.20;67.40;;;;;;5000283;28;20162;-77
2022/08/21 10:31:43;;;;;;;7.32;1.90;;;21.30;66.90;;;;;;4981687;28;20777;-75
2022/08/21 10:34:24;;;;;;;9.27;2.00;;;21.30;66.90;;;;;;4988916;28;20046;-77
2022/08/21 10:37:11;;;;;;;7.47;2.20;;;21.40;67.00;;;;;;4983408;28;20053;-77
2022/08/21 10:39:48;;;;;;;4.75;1.60;;;21.40;66.80;;;;;;5002400;28;20286;-76
2022/08/21 10:42:33;;;;;;;7.60;1.95;;;21.40;65.30;;;;;;4983697;28;20052;-78
2022/08/21 10:45:15;;;;;;;7.85;2.00;;;21.50;64.40;;;;;;4988078;28;20054;-76
2022/08/21 10:47:48;;;;;;;7.05;1.77;;;21.50;64.40;;;;;;4988827;28;20046;-76
2022/08/21 10:50:25;;;;;;;5.50;1.80;;;21.50;64.60;;;;;;4988469;28;20504;-77
2022/08/21 10:53:14;;;;;;;7.35;2.20;;;21.50;65.10;;;;;;5008786;28;20254;-76
2022/08/21 10:55:45;;;;;;;6.82;2.30;;;21.70;65.20;;;;;;5008953;28;20126;-76
2022/08/21 10:58:18;;;;;;;8.27;2.40;;;21.70;64.90;;;;;;5005926;28;20051;-77
2022/08/21 11:00:47;;;;;;;6.28;2.00;;;21.70;64.90;;;;;;4989823;28;20054;-77
2022/08/21 11:03:17;;;;;;;7.23;2.03;;;21.80;64.90;;;;;;5003803;28;20046;-77
2022/08/21 11:05:50;;;;;;;8.50;1.70;;;21.90;65.50;;;;;;5007756;28;20763;-75
2022/08/21 11:08:24;;;;;;;6.88;1.75;;;21.90;65.30;;;;;;4991610;28;20065;-75
2022/08/21 11:10:57;;;;;;;6.63;2.13;;;21.90;64.90;;;;;;4991433;28;20117;-76
2022/08/21 11:13:30;;;;;;;9.02;2.10;;;22.00;64.80;;;;;;5009298;28;20100;-76
2022/08/21 11:16:03;;;;;;;7.63;2.10;;;22.00;64.10;;;;;;4981537;28;20055;-76
2022/08/21 11:18:58;;;;;;;6.57;1.80;;;22.00;63.80;;;;;;5014465;28;20353;-76
2022/08/21 11:21:35;;;;;;;7.55;2.00;;;22.00;64.40;;;;;;4990437;28;20047;-75
2022/08/21 11:24:20;;;;;;;5.20;1.40;;;22.00;64.30;;;;;;4998790;28;20055;-75
2022/08/21 11:26:53;;;;;;;6.90;1.77;;;22.00;62.60;;;;;;5003104;28;20116;-75
2022/08/21 11:29:24;;;;;;;8.40;1.83;;;22.10;62.00;;;;;;5001548;28;20054;-75
2022/08/21 11:32:09;;;;;;;6.30;1.70;;;22.10;62.20;;;;;;5001928;28;20361;-76
2022/08/21 11:34:47;;;;;;;9.07;2.00;;;22.20;62.80;;;;;;4980709;28;20134;-77
2022/08/21 11:37:25;;;;;;;7.18;2.08;;;22.20;62.80;;;;;;4987855;28;20074;-76
2022/08/21 11:40:01;;;;;;;6.22;1.70;;;22.30;63.10;;;;;;4984940;28;20133;-76
2022/08/21 11:42:32;;;;;;;5.10;1.47;;;22.40;63.20;;;;;;4991661;28;20054;-78
2022/08/21 11:45:14;;;;;;;8.55;1.50;;;22.50;61.40;;;;;;4991481;28;20255;-77
2022/08/21 11:47:54;;;;;;;8.27;1.63;;;22.50;60.60;;;;;;4989036;28;20114;-77
2022/08/21 11:50:26;;;;;;;8.00;1.80;;;22.60;60.50;;;;;;4993711;28;21056;-76
2022/08/21 11:52:57;;;;;;;6.32;2.13;;;22.60;60.70;;;;;;4992910;28;20110;-77
2022/08/21 11:55:30;;;;;;;5.93;1.90;;;22.60;60.80;;;;;;4993890;28;20050;-76
2022/08/21 11:58:03;;;;;;;7.10;1.73;;;22.70;60.30;;;;;;5020046;28;20358;-79
2022/08/21 12:00:34;;;;;;;6.55;2.20;;;22.80;60.10;;;;;;4992840;28;20083;-75
2022/08/21 12:03:09;;;;;;;6.72;1.75;;;22.80;59.80;;;;;;5002057;28;20058;-76
2022/08/21 12:05:43;;;;;;;6.47;1.95;;;22.80;60.10;;;;;;4992367;28;20121;-77
2022/08/21 12:08:14;;;;;;;6.23;1.87;;;22.80;60.00;;;;;;5001375;28;20065;-75
2022/08/21 12:10:59;;;;;;;5.10;1.92;;;22.80;60.50;;;;;;5003429;28;20254;-75
2022/08/21 12:13:29;;;;;;;7.70;1.80;;;22.80;60.50;;;;;;5002260;28;20059;-75
2022/08/21 12:16:07;;;;;;;4.75;1.77;;;22.80;60.60;;;;;;4996569;28;20055;-75
2022/08/21 12:18:34;;;;;;;8.23;1.90;;;22.80;61.00;;;;;;4997527;28;20156;-74
2022/08/21 12:21:05;;;;;;;6.20;1.80;;;22.80;60.50;;;;;;5000244;28;20589;-73
2022/08/21 12:23:43;;;;;;;6.38;2.03;;;22.70;60.70;;;;;;4995158;28;20753;-74
2022/08/21 12:26:24;;;;;;;6.88;1.80;;;22.70;60.50;;;;;;4994926;28;20057;-75
2022/08/21 12:28:51;;;;;;;6.60;2.00;;;22.70;60.30;;;;;;4991036;28;20047;-74
2022/08/21 12:31:22;;;;;;;7.40;2.28;;;22.70;60.80;;;;;;4994072;28;20054;-74
2022/08/21 12:33:54;;;;;;;5.83;2.03;;;22.70;60.60;;;;;;4994230;28;20139;-75
2022/08/21 12:36:25;;;;;;;7.53;1.90;;;22.80;60.80;;;;;;5012323;28;20259;-75
2022/08/21 12:38:55;;;;;;;7.57;1.88;;;22.80;60.70;;;;;;5002757;28;20105;-74
2022/08/21 12:41:29;;;;;;;6.55;1.55;;;22.80;60.00;;;;;;5001885;28;20053;-74
2022/08/21 12:44:00;;;;;;;5.78;1.80;;;22.90;59.20;;;;;;4999247;28;20042;-73
2022/08/21 12:46:35;;;;;;;11.03;2.17;;;22.90;59.60;;;;;;4999725;28;20187;-74
2022/08/21 12:49:13;;;;;;;6.65;2.22;;;23.00;59.60;;;;;;4992537;28;20279;-76
2022/08/21 12:51:51;;;;;;;6.10;1.98;;;23.00;59.50;;;;;;4992684;28;20091;-76
2022/08/21 12:54:25;;;;;;;6.10;1.90;;;23.10;59.50;;;;;;4993645;28;21113;-78
2022/08/21 12:57:02;;;;;;;4.95;1.45;;;23.10;59.40;;;;;;4991328;28;20053;-77
2022/08/21 12:59:30;;;;;;;7.00;2.00;;;23.10;60.00;;;;;;4990020;28;20519;-77
2022/08/21 13:01:59;;;;;;;5.43;1.85;;;23.20;59.40;;;;;;5026265;28;20293;-77